Time;durP1;ratioP1;P1;durP2;ratioP2;P2;SDS_P1;SDS_P2;PMS_P1;PMS_P2;Temp;Humidity;BMP_temperature;BMP_pressure;BME280_temperature;BME280_humidity;BME280_pressure;Samples;Min_cycle;Max_cycle;Signal;HPM_P1;HPM_P2
2024/04/19 00:01:52;;;;;;;4.05;1.90;;;;;;;7.18;99.38;100458.66;7393444;19;20017;-80
2024/04/19 00:04:19;;;;;;;4.30;2.22;;;;;;;7.43;99.25;100493.81;7393529;19;20074;-80
2024/04/19 00:06:44;;;;;;;3.55;2.20;;;;;;;7.10;99.11;100453.63;7394444;19;20018;-81
2024/04/19 00:09:10;;;;;;;2.90;2.35;;;;;;;7.15;99.79;100456.97;7390408;19;20023;-81
2024/04/19 00:11:35;;;;;;;6.50;2.45;;;;;;;6.80;100.00;100396.66;7394175;19;20021;-79
2024/04/19 00:14:01;;;;;;;3.20;2.20;;;;;;;7.57;100.00;100531.13;7392661;19;20020;-80
2024/04/19 00:16:27;;;;;;;5.15;1.80;;;;;;;7.03;99.81;100434.53;7395023;19;20027;-80
2024/04/19 00:18:53;;;;;;;5.57;2.10;;;;;;;7.10;99.03;100442.22;7389468;19;20019;-78
2024/04/19 00:21:18;;;;;;;4.93;2.17;;;;;;;7.02;98.97;100466.19;7389297;19;20015;-80
2024/04/19 00:23:44;;;;;;;3.97;1.77;;;;;;;6.54;100.00;100385.19;7368644;19;20543;-78
2024/04/19 00:26:10;;;;;;;3.15;2.20;;;;;;;7.30;100.00;100493.34;7390334;19;20078;-79
2024/04/19 00:28:37;;;;;;;2.92;1.92;;;;;;;7.00;100.00;100433.75;7367930;19;20030;-79
2024/04/19 00:31:03;;;;;;;3.97;2.00;;;;;;;7.02;100.00;100429.31;7387392;19;20030;-80
2024/04/19 00:33:28;;;;;;;2.00;1.80;;;;;;;7.45;100.00;100506.94;7386998;19;20019;-79
2024/04/19 00:35:55;;;;;;;4.95;2.28;;;;;;;7.06;100.00;100436.22;7392763;19;20094;-80
2024/04/19 00:38:20;;;;;;;3.38;2.05;;;;;;;7.34;100.00;100496.75;7387568;19;20013;-79
2024/04/19 00:40:46;;;;;;;3.80;2.08;;;;;;;6.53;100.00;100353.66;7388209;19;20311;-79
2024/04/19 00:43:12;;;;;;;4.32;2.70;;;;;;;6.61;100.00;100370.94;7370759;19;20018;-79
2024/04/19 00:45:39;;;;;;;3.38;2.40;;;;;;;6.56;100.00;100374.63;7392885;19;20033;-78
2024/04/19 00:48:20;;;;;;;4.68;2.58;;;;;;;7.02;100.00;100477.56;7385251;19;20014;-79
2024/04/19 00:50:49;;;;;;;3.28;2.50;;;;;;;6.61;100.00;100402.50;7391584;19;20018;-79
2024/04/19 00:53:22;;;;;;;3.10;2.35;;;;;;;7.10;100.00;100482.56;7400773;19;20717;-78
2024/04/19 00:55:49;;;;;;;5.10;2.25;;;;;;;7.21;100.00;100484.91;7426430;19;20221;-80
2024/04/19 00:58:16;;;;;;;5.68;2.40;;;;;;;7.06;100.00;100457.28;7420740;19;20043;-79
2024/04/19 01:00:42;;;;;;;4.25;2.63;;;;;;;7.21;100.00;100469.97;7415366;19;20025;-79
2024/04/19 01:03:08;;;;;;;2.75;2.22;;;;;;;6.96;100.00;100432.13;7401513;19;20019;-79
2024/04/19 01:05:34;;;;;;;8.77;2.55;;;;;;;6.68;100.00;100382.13;7403185;19;20022;-81
2024/04/19 01:07:59;;;;;;;4.15;2.63;;;;;;;6.44;100.00;100338.19;7396850;19;20018;-79
2024/04/19 01:10:25;;;;;;;6.60;2.83;;;;;;;6.93;100.00;100417.28;7398892;19;20022;-79
2024/04/19 01:12:52;;;;;;;4.07;2.58;;;;;;;6.87;100.00;100409.59;7398923;19;20007;-78
2024/04/19 01:15:22;;;;;;;5.82;2.80;;;;;;;7.13;100.00;100447.41;7396595;19;20011;-79
2024/04/19 01:17:48;;;;;;;4.57;2.60;;;;;;;7.04;100.00;100432.75;7399476;19;20021;-80
2024/04/19 01:20:14;;;;;;;4.05;2.60;;;;;;;6.81;100.00;100394.00;7399125;19;20291;-79
2024/04/19 01:22:42;;;;;;;2.58;2.38;;;;;;;6.67;100.00;100362.00;7397440;19;20014;-80
2024/04/19 01:25:21;;;;;;;4.25;2.60;;;;;;;6.92;100.00;100401.56;7398870;19;20007;-82
2024/04/19 01:27:47;;;;;;;3.97;2.22;;;;;;;6.71;100.00;100357.50;7396460;19;20280;-81
2024/04/19 01:30:13;;;;;;;6.15;2.28;;;;;;;7.00;100.00;100395.13;7396219;19;20018;-80
2024/04/19 01:32:38;;;;;;;3.20;2.47;;;;;;;6.63;100.00;100337.53;7393592;19;20006;-79
2024/04/19 01:35:05;;;;;;;4.93;2.33;;;;;;;6.97;100.00;100399.63;7395925;19;20007;-81
2024/04/19 01:37:31;;;;;;;5.22;2.22;;;;;;;6.76;100.00;100364.34;7375920;19;20029;-78
2024/04/19 01:39:56;;;;;;;7.28;2.80;;;;;;;6.38;100.00;100310.28;7400610;19;20491;-79
2024/04/19 01:42:22;;;;;;;4.10;2.97;;;;;;;6.95;100.00;100396.19;7412439;19;20003;-77
2024/04/19 01:44:48;;;;;;;6.65;2.90;;;;;;;6.85;100.00;100378.97;7425049;19;20015;-80
2024/04/19 01:47:13;;;;;;;3.33;2.83;;;;;;;6.93;100.00;100393.59;7414814;19;20160;-78
2024/04/19 01:49:40;;;;;;;4.38;2.80;;;;;;;6.86;100.00;100391.22;7399730;19;20018;-79
2024/04/19 01:52:05;;;;;;;3.78;2.50;;;;;;;6.25;100.00;100308.97;7395682;19;20483;-79
2024/04/19 01:54:31;;;;;;;7.45;2.97;;;;;;;6.39;100.00;100347.97;7397406;19;20023;-79
2024/04/19 01:56:59;;;;;;;4.55;3.00;;;;;;;6.31;100.00;100349.06;7396866;19;20018;-76
2024/04/19 01:59:27;;;;;;;5.32;3.05;;;;;;;6.08;100.00;100311.22;7394412;19;20463;-79
2024/04/19 02:01:53;;;;;;;6.43;2.97;;;;;;;6.33;100.00;100357.75;7400611;19;20079;-77
2024/04/19 02:04:18;;;;;;;4.05;2.90;;;;;;;6.39;100.00;100364.63;7377456;19;20006;-80
2024/04/19 02:06:45;;;;;;;4.43;3.20;;;;;;;6.63;100.00;100384.03;7394969;19;20010;-79
2024/04/19 02:09:12;;;;;;;4.38;2.97;;;;;;;6.64;100.00;100376.09;7394111;19;20020;-79
2024/04/19 02:11:38;;;;;;;5.88;3.28;;;;;;;6.35;100.00;100320.91;7397574;19;20011;-81
2024/04/19 02:14:04;;;;;;;3.85;3.13;;;;;;;6.66;100.00;100352.38;7396068;19;20115;-79
2024/04/19 02:16:30;;;;;;;6.03;3.47;;;;;;;6.49;100.00;100329.22;7397683;19;20033;-81
2024/04/19 02:18:56;;;;;;;6.00;3.45;;;;;;;6.76;100.00;100343.28;7371798;19;20030;-79
2024/04/19 02:21:27;;;;;;;7.60;3.63;;;;;;;6.76;100.00;100335.41;7394577;19;20035;-82
2024/04/19 02:23:56;;;;;;;5.85;4.00;;;;;;;6.12;100.00;100226.13;7400756;19;20474;-81
2024/04/19 02:26:23;;;;;;;6.30;4.03;;;;;;;6.76;100.00;100340.66;7397120;19;20038;-81
2024/04/19 02:31:34;;;;;;;4.88;3.50;;;;;;;6.75;100.00;100330.19;7393900;19;20006;-78
2024/04/19 02:33:59;;;;;;;6.13;3.97;;;;;;;6.71;100.00;100321.53;7396758;19;20011;-81
2024/04/19 02:36:25;;;;;;;5.75;3.72;;;;;;;6.67;100.00;100315.50;7398486;19;20092;-79
2024/04/19 02:38:52;;;;;;;4.43;3.70;;;;;;;6.42;100.00;100274.25;7394849;19;20010;-80
2024/04/19 02:41:18;;;;;;;7.30;4.20;;;;;;;6.40;100.00;100266.41;7396997;19;20022;-80
2024/04/19 02:43:48;;;;;;;5.20;3.63;;;;;;;6.34;100.00;100250.81;7397852;19;20014;-80
2024/04/19 02:46:16;;;;;;;6.17;3.43;;;;;;;6.52;100.00;100265.13;7395997;19;20033;-80
2024/04/19 02:48:42;;;;;;;4.22;3.60;;;;;;;6.42;100.00;100227.75;7393448;19;20018;-79
2024/04/19 02:51:07;;;;;;;7.13;4.00;;;;;;;6.75;100.00;100273.16;7391521;19;20015;-78
2024/04/19 02:53:33;;;;;;;4.47;3.65;;;;;;;6.82;100.00;100281.69;7393446;19;20018;-80
2024/04/19 02:56:03;;;;;;;8.40;3.70;;;;;;;6.92;100.00;100286.59;7397739;19;20002;-79
2024/04/19 02:58:29;;;;;;;4.47;3.45;;;;;;;6.90;100.00;100282.31;7394032;19;20018;-80
2024/04/19 03:00:55;;;;;;;6.82;4.03;;;;;;;6.91;100.00;100282.25;7392728;19;20015;-78
2024/04/19 03:03:20;;;;;;;6.70;3.70;;;;;;;6.53;100.00;100220.38;7396344;19;20011;-81
2024/04/19 03:05:47;;;;;;;8.07;3.53;;;;;;;6.24;100.00;100174.00;7375576;19;20010;-81
2024/04/19 03:08:13;;;;;;;5.75;3.40;;;;;;;6.78;100.00;100286.19;7395176;19;20015;-79
2024/04/19 03:10:39;;;;;;;6.00;3.22;;;;;;;6.56;100.00;100272.88;7393620;19;20477;-80
2024/04/19 03:13:07;;;;;;;4.68;3.35;;;;;;;6.56;100.00;100293.06;7396208;19;20007;-79
2024/04/19 03:15:35;;;;;;;7.00;3.33;;;;;;;6.46;100.00;100294.25;7394282;19;20017;-80
2024/04/19 03:18:01;;;;;;;5.00;3.28;;;;;;;6.49;100.00;100297.66;7394963;19;20014;-79
2024/04/19 03:20:26;;;;;;;5.80;3.25;;;;;;;6.31;100.00;100279.81;7390818;19;20028;-80
2024/04/19 03:22:52;;;;;;;7.43;2.85;;;;;;;6.29;100.00;100277.25;7397829;19;20523;-79
2024/04/19 03:25:18;;;;;;;3.88;2.90;;;;;;;6.05;100.00;100249.09;7397338;19;20035;-79
2024/04/19 03:27:45;;;;;;;5.13;3.20;;;;;;;6.38;100.00;100294.50;7398561;19;20003;-80
2024/04/19 03:30:22;;;;;;;4.10;3.30;;;;;;;5.95;100.00;100201.22;7371360;19;20021;-80
2024/04/19 03:32:48;;;;;;;4.45;3.30;;;;;;;6.17;100.00;100238.19;7395005;19;20019;-82
2024/04/19 03:35:13;;;;;;;6.70;3.50;;;;;;;5.85;100.00;100204.13;7394648;19;20010;-79
2024/04/19 03:37:39;;;;;;;5.03;2.97;;;;;;;5.71;100.00;100159.88;7394978;19;20011;-80
2024/04/19 03:40:05;;;;;;;5.20;3.30;;;;;;;6.00;100.00;100214.19;7389589;19;20050;-80
2024/04/19 03:42:31;;;;;;;4.60;3.20;;;;;;;6.41;100.00;100254.97;7394163;19;20027;-78
2024/04/19 03:47:41;;;;;;;6.22;3.40;;;;;;;6.23;100.00;100197.69;7397559;19;20024;-81
2024/04/19 03:50:07;;;;;;;3.95;2.95;;;;;;;6.03;100.00;100160.66;7395880;19;19999;-80
2024/04/19 03:52:33;;;;;;;7.35;3.63;;;;;;;6.59;100.00;100246.47;7396420;19;20078;-77
2024/04/19 03:54:58;;;;;;;6.70;4.03;;;;;;;6.49;100.00;100234.53;7396940;19;20038;-79
2024/04/19 03:57:24;;;;;;;7.55;3.78;;;;;;;6.05;100.00;100172.84;7393343;19;20003;-79
2024/04/19 03:59:49;;;;;;;6.38;4.20;;;;;;;6.44;100.00;100218.06;7388935;19;20021;-79
2024/04/19 04:02:15;;;;;;;4.85;3.60;;;;;;;6.29;100.00;100208.03;7391525;19;20035;-79
2024/04/19 04:04:41;;;;;;;4.85;3.80;;;;;;;6.46;100.00;100229.34;7393788;19;20022;-78
2024/04/19 04:07:06;;;;;;;4.70;3.95;;;;;;;6.45;100.00;100240.81;7378441;19;20011;-79
2024/04/19 04:09:32;;;;;;;6.15;4.18;;;;;;;6.32;100.00;100213.16;7386023;19;20359;-78
2024/04/19 04:11:58;;;;;;;6.10;4.20;;;;;;;6.11;100.00;100174.44;7404072;19;20033;-78
2024/04/19 04:14:24;;;;;;;5.50;3.85;;;;;;;6.12;100.00;100170.91;7411371;19;20022;-78
2024/04/19 04:16:49;;;;;;;6.93;4.75;;;;;;;6.12;100.00;100163.03;7396897;19;20046;-78
2024/04/19 04:19:15;;;;;;;6.43;4.50;;;;;;;6.32;100.00;100214.03;7403463;19;20266;-80
2024/04/19 04:21:41;;;;;;;8.13;4.68;;;;;;;6.14;100.00;100166.47;7397186;19;20337;-79
2024/04/19 04:24:07;;;;;;;5.88;4.47;;;;;;;6.45;100.00;100219.78;7392841;19;20009;-78
2024/04/19 04:26:33;;;;;;;6.05;4.35;;;;;;;5.99;100.00;100145.00;7393719;19;20015;-80
2024/04/19 04:28:58;;;;;;;5.55;4.47;;;;;;;6.15;100.00;100160.25;7389878;19;20378;-78
2024/04/19 04:31:26;;;;;;;5.78;4.57;;;;;;;5.96;100.00;100128.47;7366950;19;20019;-79
2024/04/19 04:33:51;;;;;;;7.53;4.90;;;;;;;5.91;100.00;100136.50;7371650;19;20006;-79
2024/04/19 04:36:18;;;;;;;7.88;4.53;;;;;;;5.82;100.00;100115.75;7392042;19;20035;-79
2024/04/19 04:38:44;;;;;;;7.22;5.00;;;;;;;6.15;100.00;100158.50;7391020;19;20630;-78
2024/04/19 04:41:11;;;;;;;5.53;5.03;;;;;;;6.07;100.00;100151.78;7387889;19;20022;-77
2024/04/19 04:43:36;;;;;;;7.32;5.10;;;;;;;5.95;100.00;100153.03;7392793;19;20003;-77
2024/04/19 04:46:02;;;;;;;5.65;5.03;;;;;;;6.03;100.00;100174.66;7390934;19;20097;-78
2024/04/19 04:48:27;;;;;;;5.88;4.22;;;;;;;6.08;100.00;100174.53;7393825;19;20106;-79
2024/04/19 04:50:53;;;;;;;5.28;4.40;;;;;;;6.18;100.00;100194.34;7389946;19;20393;-77
2024/04/19 04:53:19;;;;;;;6.55;4.40;;;;;;;6.15;100.00;100184.78;7392656;19;20475;-78
2024/04/19 04:55:45;;;;;;;7.05;4.20;;;;;;;5.70;100.00;100097.75;7393783;19;20007;-79
2024/04/19 04:58:10;;;;;;;5.90;4.88;;;;;;;6.05;100.00;100154.47;7393058;19;20094;-80
2024/04/19 05:00:37;;;;;;;6.45;4.85;;;;;;;6.17;100.00;100175.09;7387974;19;20007;-79
2024/04/19 05:03:06;;;;;;;6.95;5.30;;;;;;;6.19;100.00;100175.03;7390218;19;20014;-78
2024/04/19 05:05:33;;;;;;;7.75;5.47;;;;;;;6.12;100.00;100160.38;7391714;19;20014;-80
2024/04/19 05:07:58;;;;;;;7.65;5.32;;;;;;;6.19;100.00;100167.16;7394022;19;20022;-77
2024/04/19 05:10:25;;;;;;;8.07;5.50;;;;;;;5.98;100.00;100152.97;7394889;19;20018;-79
2024/04/19 05:12:50;;;;;;;5.22;4.63;;;;;;;5.39;100.00;100076.81;7390352;19;20037;-79
2024/04/19 05:15:16;;;;;;;6.55;4.38;;;;;;;5.71;100.00;100124.88;7391046;19;20034;-79
2024/04/19 05:17:43;;;;;;;3.42;3.13;;;;;;;5.36;100.00;100091.81;7390642;19;20010;-77
2024/04/19 05:20:09;;;;;;;5.00;3.55;;;;;;;5.63;100.00;100162.75;7383827;19;20006;-78
2024/04/19 05:22:37;;;;;;;4.43;3.63;;;;;;;5.47;100.00;100148.38;7385426;19;20010;-77
2024/04/19 05:25:07;;;;;;;4.75;3.83;;;;;;;5.53;100.00;100158.66;7390083;19;20367;-77
2024/04/19 05:27:34;;;;;;;7.75;3.78;;;;;;;5.17;100.00;100086.28;7388858;19;20021;-77
2024/04/19 05:30:00;;;;;;;6.88;3.13;;;;;;;5.44;100.00;100126.59;7383872;19;20444;-78
2024/04/19 05:32:26;;;;;;;3.17;2.60;;;;;;;5.51;100.00;100144.72;7386492;19;20015;-77
2024/04/19 05:34:55;;;;;;;3.33;1.60;;;;;;;5.55;100.00;100124.47;7390290;19;20017;-79
2024/04/19 05:37:21;;;;;;;2.55;1.70;;;;;;;5.50;100.00;100111.50;7389533;19;20022;-77
2024/04/19 05:39:46;;;;;;;4.85;1.60;;;;;;;5.40;100.00;100082.94;7390672;19;20018;-78
2024/04/19 05:42:14;;;;;;;1.98;1.55;;;;;;;5.39;100.00;100094.34;7394639;19;20024;-79
2024/04/19 05:44:41;;;;;;;2.25;1.40;;;;;;;5.36;100.00;100089.19;7412665;19;20010;-79
2024/04/19 05:47:06;;;;;;;2.03;1.55;;;;;;;5.03;100.00;100038.59;7422343;19;20039;-77
2024/04/19 05:49:33;;;;;;;4.93;1.50;;;;;;;5.41;100.00;100108.28;7341861;19;20030;-77
2024/04/19 05:51:58;;;;;;;1.55;1.45;;;;;;;5.17;100.00;100079.25;7367810;19;20018;-77
2024/04/19 05:54:24;;;;;;;2.28;1.95;;;;;;;5.12;100.00;100080.28;7387585;19;20095;-77
2024/04/19 05:56:49;;;;;;;4.57;1.83;;;;;;;5.21;100.00;100074.75;7396939;19;20018;-77
2024/04/19 05:59:15;;;;;;;1.73;1.63;;;;;;;5.44;100.00;100092.44;7396139;19;20038;-79
2024/04/19 06:01:41;;;;;;;5.65;2.08;;;;;;;5.38;100.00;100061.13;7393950;19;20006;-80
2024/04/19 06:04:07;;;;;;;2.80;1.55;;;;;;;5.32;100.00;100040.31;7397046;19;20352;-79
2024/04/19 06:06:34;;;;;;;3.50;2.08;;;;;;;4.89;100.00;99973.38;7396852;19;20022;-79
2024/04/19 06:09:00;;;;;;;2.97;2.30;;;;;;;5.23;100.00;100031.81;7397530;19;20375;-78
2024/04/19 06:11:25;;;;;;;3.42;1.92;;;;;;;5.80;100.00;100066.78;7388146;19;20011;-79
2024/04/19 06:13:51;;;;;;;2.88;2.00;;;;;;;5.32;100.00;99998.31;7397333;19;20276;-80
2024/04/19 06:16:16;;;;;;;4.00;2.10;;;;;;;5.68;100.00;100069.78;7414088;19;20110;-78
2024/04/19 06:18:42;;;;;;;4.63;2.22;;;;;;;5.42;100.00;100021.59;7421786;19;20017;-78
2024/04/19 06:21:07;;;;;;;2.15;1.98;;;;;;;5.12;100.00;99981.41;7404696;19;20021;-78
2024/04/19 06:23:33;;;;;;;3.47;2.22;;;;;;;5.14;100.00;99982.25;7399392;19;20006;-79
2024/04/19 06:26:06;;;;;;;5.07;2.33;;;;;;;5.47;100.00;100029.34;7398195;19;20011;-78
2024/04/19 06:28:34;;;;;;;3.85;2.65;;;;;;;5.29;100.00;99983.50;7396461;19;20016;-80
2024/04/19 06:31:11;;;;;;;4.40;3.05;;;;;;;5.32;100.00;99962.41;7388952;19;20021;-80
2024/04/19 06:33:39;;;;;;;5.80;3.50;;;;;;;5.71;100.00;100038.19;7393770;19;20035;-79
2024/04/19 06:36:06;;;;;;;3.95;3.38;;;;;;;5.66;100.00;100037.47;7394268;19;20021;-78
2024/04/19 06:38:33;;;;;;;6.22;3.90;;;;;;;5.76;100.00;100034.50;7396806;19;20041;-80
2024/04/19 06:40:59;;;;;;;5.25;3.97;;;;;;;5.49;100.00;99975.00;7392441;19;20353;-77
2024/04/19 06:43:26;;;;;;;8.77;4.63;;;;;;;4.56;100.00;99837.13;7396942;19;20020;-80
2024/04/19 06:45:51;;;;;;;5.60;4.50;;;;;;;5.51;100.00;99996.81;7375928;19;20018;-80
2024/04/19 06:48:17;;;;;;;6.30;4.35;;;;;;;5.41;100.00;99958.63;7395480;19;20018;-78
2024/04/19 06:50:43;;;;;;;8.27;5.00;;;;;;;5.76;100.00;100017.88;7390315;19;20044;-79
2024/04/19 06:53:08;;;;;;;5.30;4.80;;;;;;;5.16;100.00;99913.94;7393141;19;20013;-80
2024/04/19 06:55:34;;;;;;;8.35;5.32;;;;;;;5.71;100.00;99999.63;7392707;19;20003;-78
2024/04/19 06:58:00;;;;;;;7.47;4.95;;;;;;;5.69;100.00;99985.69;7393122;19;20056;-78
2024/04/19 07:00:26;;;;;;;8.15;5.82;;;;;;;5.73;100.00;99986.44;7392485;19;20014;-78
2024/04/19 07:02:52;;;;;;;7.97;5.60;;;;;;;5.23;100.00;99899.69;7397549;19;20018;-78
2024/04/19 07:05:17;;;;;;;8.10;5.88;;;;;;;5.84;100.00;99984.31;7399396;19;20009;-78
2024/04/19 07:07:49;;;;;;;5.88;5.15;;;;;;;5.69;100.00;99977.78;7401064;19;20006;-78
2024/04/19 07:10:15;;;;;;;6.93;5.65;;;;;;;5.06;100.00;99865.28;7398129;19;20518;-77
2024/04/19 07:12:42;;;;;;;8.57;6.20;;;;;;;5.43;100.00;99906.91;7396635;19;20003;-78
2024/04/19 07:15:08;;;;;;;7.47;6.05;;;;;;;5.66;100.00;99940.28;7394754;19;20015;-79
2024/04/19 07:17:35;;;;;;;8.38;5.85;;;;;;;5.89;100.00;99948.25;7395528;19;20029;-79
2024/04/19 07:20:01;;;;;;;6.00;5.13;;;;;;;6.15;100.00;99963.94;7396020;19;20018;-77
2024/04/19 07:22:26;;;;;;;5.95;5.18;;;;;;;5.80;100.00;99896.00;7362750;19;20038;-79
2024/04/19 07:24:52;;;;;;;5.93;4.60;;;;;;;5.85;100.00;99931.69;7372825;19;20038;-77
2024/04/19 07:27:19;;;;;;;6.53;4.90;;;;;;;6.02;100.00;99948.69;7361195;19;20006;-80
2024/04/19 07:29:46;;;;;;;5.30;4.60;;;;;;;6.06;100.00;99945.03;7397079;19;20011;-80
2024/04/19 07:32:12;;;;;;;5.93;4.75;;;;;;;5.66;100.00;99877.25;7385545;19;20030;-79
2024/04/19 07:34:37;;;;;;;5.28;4.68;;;;;;;5.81;100.00;99882.81;7394935;19;20006;-79
2024/04/19 07:37:03;;;;;;;5.40;4.90;;;;;;;6.13;100.00;99933.41;7392019;19;20033;-77
2024/04/19 07:39:29;;;;;;;5.88;5.10;;;;;;;5.86;100.00;99885.25;7392115;19;20018;-78
2024/04/19 07:41:57;;;;;;;5.75;5.15;;;;;;;5.97;100.00;99893.66;7389469;19;20027;-79
2024/04/19 07:44:24;;;;;;;9.07;5.18;;;;;;;5.83;100.00;99883.59;7388239;19;20037;-79
2024/04/19 07:46:50;;;;;;;7.20;5.22;;;;;;;5.49;100.00;99831.44;7390604;19;20045;-78
2024/04/19 07:49:15;;;;;;;7.30;5.55;;;;;;;5.98;100.00;99895.38;7392875;19;20354;-80
2024/04/19 07:51:42;;;;;;;7.68;5.43;;;;;;;5.98;100.00;99904.09;7388904;19;20018;-79
2024/04/19 07:54:07;;;;;;;5.82;4.93;;;;;;;5.42;100.00;99800.16;7392293;19;20006;-79
2024/04/19 07:56:33;;;;;;;6.85;5.30;;;;;;;5.05;100.00;99743.69;7391852;19;20022;-79
2024/04/19 07:59:00;;;;;;;8.70;6.20;;;;;;;5.88;100.00;99855.44;7393585;19;20006;-79
2024/04/19 08:01:25;;;;;;;6.63;5.55;;;;;;;5.98;100.00;99859.41;7386501;19;20053;-79
2024/04/19 08:03:51;;;;;;;8.00;5.68;;;;;;;5.71;100.00;99791.25;7391258;19;20018;-81
2024/04/19 08:06:17;;;;;;;6.78;5.90;;;;;;;5.86;100.00;99806.44;7393005;19;20007;-80
2024/04/19 08:08:48;;;;;;;7.10;5.95;;;;;;;6.14;100.00;99874.66;7393606;19;20038;-78
2024/04/19 08:11:14;;;;;;;6.85;5.95;;;;;;;5.66;100.00;99780.06;7390731;19;20018;-78
2024/04/19 08:13:42;;;;;;;7.07;6.10;;;;;;;6.07;100.00;99839.84;7389187;19;20010;-78
2024/04/19 08:16:09;;;;;;;6.47;5.70;;;;;;;5.88;100.00;99815.13;7389044;19;20023;-77
2024/04/19 08:18:35;;;;;;;8.05;6.30;;;;;;;5.83;100.00;99788.16;7389742;19;20014;-79
2024/04/19 08:21:00;;;;;;;10.30;6.50;;;;;;;6.16;100.00;99821.09;7389390;19;20601;-79
2024/04/19 08:23:26;;;;;;;8.73;6.20;;;;;;;6.32;100.00;99839.75;7405819;19;20015;-79
2024/04/19 08:25:52;;;;;;;10.00;6.13;;;;;;;6.27;100.00;99837.31;7422407;19;20006;-76
2024/04/19 08:28:20;;;;;;;9.10;6.60;;;;;;;5.91;100.00;99775.63;7405315;19;20002;-80
2024/04/19 08:30:46;;;;;;;7.90;6.22;;;;;;;5.79;100.00;99741.91;7388189;19;20014;-78
2024/04/19 08:33:12;;;;;;;9.23;6.72;;;;;;;6.27;100.00;99807.53;7388488;19;20013;-78
2024/04/19 08:35:37;;;;;;;8.75;6.10;;;;;;;6.33;100.00;99817.81;7390918;19;20034;-77
2024/04/19 08:38:04;;;;;;;7.53;6.50;;;;;;;6.07;100.00;99773.28;7371950;19;20014;-79
2024/04/19 08:40:33;;;;;;;10.82;7.13;;;;;;;6.03;100.00;99780.41;7388398;19;21335;-77
2024/04/19 08:42:58;;;;;;;9.55;6.65;;;;;;;6.01;100.00;99778.75;7386637;19;20582;-79
2024/04/19 08:45:28;;;;;;;10.15;5.97;;;;;;;6.07;100.00;99789.03;7390532;19;20027;-78
2024/04/19 08:47:54;;;;;;;10.23;6.47;;;;;;;5.78;100.00;99756.81;7395964;19;20021;-79
2024/04/19 08:50:23;;;;;;;10.52;7.05;;;;;;;5.61;100.00;99740.81;7395168;19;20021;-77
2024/04/19 08:52:49;;;;;;;8.77;7.18;;;;;;;5.88;100.00;99781.84;7382174;19;20142;-77
2024/04/19 08:55:17;;;;;;;11.50;7.75;;;;;;;5.99;100.00;99792.81;7392246;19;20038;-78
2024/04/19 08:57:44;;;;;;;11.95;8.02;;;;;;;5.97;100.00;99763.13;7389531;19;20035;-79
2024/04/19 09:00:11;;;;;;;11.85;8.20;;;;;;;6.26;100.00;99784.81;7389896;19;20443;-77
2024/04/19 09:02:36;;;;;;;9.95;7.50;;;;;;;6.22;100.00;99772.69;7387039;19;20022;-77
2024/04/19 09:05:06;;;;;;;10.35;7.43;;;;;;;6.20;100.00;99756.09;7390130;19;20015;-79
2024/04/19 09:07:31;;;;;;;9.73;7.63;;;;;;;6.30;100.00;99775.84;7389262;19;20014;-77
2024/04/19 09:09:58;;;;;;;10.18;8.27;;;;;;;6.11;100.00;99740.72;7390936;19;20023;-77
2024/04/19 09:12:23;;;;;;;8.20;7.32;;;;;;;5.95;100.00;99691.38;7384197;19;20003;-78
2024/04/19 09:14:51;;;;;;;9.40;7.25;;;;;;;6.15;100.00;99723.88;7389989;19;20018;-77
2024/04/19 09:17:18;;;;;;;10.43;7.20;;;;;;;5.96;100.00;99694.84;7396653;19;20494;-78
2024/04/19 09:19:46;;;;;;;8.88;6.68;;;;;;;6.22;100.00;99739.34;7397317;19;20018;-78
2024/04/19 09:22:13;;;;;;;10.15;8.23;;;;;;;6.28;100.00;99733.00;7386470;19;20510;-75
2024/04/19 09:24:40;;;;;;;8.63;7.45;;;;;;;6.25;100.00;99715.59;7395493;19;20502;-77
2024/04/19 09:27:06;;;;;;;9.32;7.35;;;;;;;6.25;100.00;99736.63;7397426;19;20111;-77
2024/04/19 09:29:31;;;;;;;8.10;6.75;;;;;;;6.27;100.00;99739.19;7396411;19;20010;-76
2024/04/19 09:31:59;;;;;;;7.40;6.43;;;;;;;6.12;100.00;99708.25;7391681;19;20039;-77
2024/04/19 09:34:25;;;;;;;11.50;8.20;;;;;;;6.05;100.00;99669.97;7373815;19;20011;-79
2024/04/19 09:36:51;;;;;;;8.13;6.53;;;;;;;6.59;100.00;99737.88;7396974;19;20007;-79
2024/04/19 09:39:19;;;;;;;7.25;6.03;;;;;;;6.12;100.00;99681.97;7396081;19;20014;-78
2024/04/19 09:41:49;;;;;;;7.03;5.80;;;;;;;6.22;100.00;99720.09;7392036;19;20014;-77
2024/04/19 09:44:15;;;;;;;6.18;5.43;;;;;;;6.23;100.00;99738.44;7390381;19;20014;-77
2024/04/19 09:46:48;;;;;;;6.65;5.70;;;;;;;5.78;100.00;99667.50;7392356;19;20034;-78
2024/04/19 09:49:14;;;;;;;5.90;5.30;;;;;;;5.99;100.00;99698.19;7393373;19;20038;-78
2024/04/19 09:51:49;;;;;;;6.40;4.95;;;;;;;6.13;100.00;99726.59;7359489;19;20021;-78
2024/04/19 09:54:19;;;;;;;6.60;5.22;;;;;;;5.95;100.00;99677.38;7392186;19;20078;-79
2024/04/19 09:56:50;;;;;;;;;;;;;;;6.25;100.00;99723.47;7393577;19;20021;-78
2024/04/19 09:59:16;;;;;;;;;;;;;;;6.25;100.00;99715.59;7398286;19;19919;-76
2024/04/19 10:01:43;;;;;;;5.60;4.47;;;;;;;6.36;100.00;99723.03;7393287;19;19919;-78
2024/04/19 10:04:10;;;;;;;5.32;4.22;;;;;;;6.10;100.00;99673.28;7396099;19;20006;-79
2024/04/19 10:06:37;;;;;;;6.20;4.30;;;;;;;6.22;100.00;99692.03;7396784;19;20038;-78
2024/04/19 10:09:08;;;;;;;4.13;3.70;;;;;;;6.13;100.00;99667.91;7392314;19;20014;-76
2024/04/19 10:11:40;;;;;;;4.40;3.83;;;;;;;5.98;100.00;99637.84;7392249;19;20022;-77
2024/04/19 10:14:06;;;;;;;3.75;3.33;;;;;;;6.41;100.00;99701.81;7369630;19;20050;-79
2024/04/19 10:16:32;;;;;;;5.10;3.53;;;;;;;6.32;100.00;99679.34;7393211;19;20025;-77
2024/04/19 10:18:58;;;;;;;4.97;4.05;;;;;;;6.23;100.00;99648.19;7395712;19;20430;-77
2024/04/19 10:21:26;;;;;;;4.32;3.75;;;;;;;6.27;100.00;99666.44;7393910;19;20007;-78
2024/04/19 10:23:51;;;;;;;5.20;3.75;;;;;;;6.36;100.00;99666.94;7391731;19;20038;-76
2024/04/19 10:26:25;;;;;;;7.50;3.70;;;;;;;6.53;100.00;99677.63;7394303;19;20023;-78
2024/04/19 10:28:55;;;;;;;6.30;3.90;;;;;;;6.27;100.00;99616.47;7416032;19;20011;-78
2024/04/19 10:31:25;;;;;;;6.47;4.32;;;;;;;6.53;100.00;99644.28;7423585;19;20055;-75
2024/04/19 10:33:52;;;;;;;6.32;3.90;;;;;;;6.64;100.00;99662.22;7399943;19;20009;-76
2024/04/19 10:36:18;;;;;;;5.00;4.03;;;;;;;6.48;100.00;99648.03;7393060;19;20037;-79
2024/04/19 10:38:48;;;;;;;6.63;4.13;;;;;;;6.62;100.00;99643.88;7392162;19;20022;-79
2024/04/19 10:41:16;;;;;;;5.15;4.32;;;;;;;6.67;100.00;99660.34;7391071;19;20025;-77
2024/04/19 10:43:44;;;;;;;4.70;4.20;;;;;;;6.64;100.00;99643.81;7389489;19;20015;-76
2024/04/19 10:46:11;;;;;;;5.13;4.00;;;;;;;6.42;100.00;99595.69;7391436;19;20015;-79
2024/04/19 10:48:43;;;;;;;6.25;4.20;;;;;;;6.43;100.00;99577.22;7392974;19;20025;-76
2024/04/19 10:51:13;;;;;;;10.90;6.40;;;;;;;6.33;100.00;99539.94;7391974;19;20025;-78
2024/04/19 10:53:40;;;;;;;6.00;5.28;;;;;;;7.08;100.00;99634.00;7387763;19;20007;-77
2024/04/19 10:56:06;;;;;;;4.40;4.00;;;;;;;6.78;100.00;99570.41;7392688;19;20022;-76
2024/04/19 10:58:32;;;;;;;4.93;4.32;;;;;;;6.75;100.00;99559.19;7393090;19;20019;-78
2024/04/19 11:00:59;;;;;;;5.60;3.88;;;;;;;6.15;100.00;99461.00;7394469;19;20035;-77
2024/04/19 11:03:25;;;;;;;4.43;3.65;;;;;;;6.67;100.00;99533.19;7391486;19;20010;-78
2024/04/19 11:05:51;;;;;;;5.38;4.13;;;;;;;7.06;100.00;99620.06;7387587;19;20032;-78
2024/04/19 11:08:18;;;;;;;4.65;3.33;;;;;;;7.11;100.00;99604.03;7392661;19;20014;-79
2024/04/19 11:10:46;;;;;;;4.28;3.60;;;;;;;7.09;100.00;99577.75;7394326;19;20483;-78
2024/04/19 11:13:13;;;;;;;3.90;3.47;;;;;;;7.10;100.00;99579.47;7389339;19;20002;-76
2024/04/19 11:15:39;;;;;;;4.55;3.22;;;;;;;7.12;100.00;99582.03;7392828;19;20007;-78
2024/04/19 11:18:07;;;;;;;3.83;3.42;;;;;;;7.13;100.00;99581.13;7392496;19;20015;-80
2024/04/19 11:20:36;;;;;;;4.25;2.90;;;;;;;7.00;100.00;99565.03;7392210;19;20026;-77
2024/04/19 11:23:03;;;;;;;3.47;3.03;;;;;;;7.18;100.00;99579.13;7391019;19;20018;-77
2024/04/19 11:25:29;;;;;;;3.22;2.80;;;;;;;7.11;100.00;99554.84;7393955;19;20017;-78
2024/04/19 11:27:55;;;;;;;2.92;2.67;;;;;;;7.11;100.00;99557.50;7391232;19;20015;-79
2024/04/19 11:30:22;;;;;;;7.28;3.40;;;;;;;6.88;100.00;99499.81;7370872;19;20007;-78
2024/04/19 11:32:54;;;;;;;4.18;2.90;;;;;;;7.35;100.00;99553.72;7393149;19;20017;-79